createdAt,value
2023-03-16T00:02:17.616Z,54.39
2023-03-16T00:04:47.252Z,54.46
2023-03-16T00:07:14.989Z,54.27
2023-03-16T00:09:41.784Z,54.24
2023-03-16T00:12:16.064Z,54.12
2023-03-16T00:14:44.397Z,54.72
2023-03-16T00:17:20.090Z,54.94
2023-03-16T00:19:46.843Z,54.56
2023-03-16T00:22:14.824Z,54.56
2023-03-16T00:24:45.624Z,54.81
2023-03-16T00:27:14.785Z,54.43
2023-03-16T00:29:49.340Z,54.54
2023-03-16T00:32:17.992Z,54.88
2023-03-16T00:34:45.629Z,54.38
2023-03-16T00:37:15.364Z,53.84
2023-03-16T00:39:43.011Z,54.22
2023-03-16T00:42:14.440Z,54.12
2023-03-16T00:44:44.233Z,53.99
2023-03-16T00:47:14.314Z,54.50
2023-03-16T00:49:42.843Z,54.77
2023-03-16T00:52:14.616Z,54.84
2023-03-16T00:54:43.146Z,54.45
2023-03-16T00:57:12.095Z,54.36
2023-03-16T00:59:38.746Z,54.32
2023-03-16T01:02:07.471Z,54.44
2023-03-16T01:04:35.774Z,54.96
2023-03-16T01:07:06.376Z,54.72
2023-03-16T01:09:36.958Z,54.69
2023-03-16T01:12:09.159Z,55.20
2023-03-16T01:14:36.043Z,55.40
2023-03-16T01:17:06.383Z,54.87
2023-03-16T01:19:34.066Z,55.07
2023-03-16T01:22:00.592Z,54.46
2023-03-16T01:24:27.124Z,54.87
2023-03-16T01:26:54.250Z,54.51
2023-03-16T01:29:20.965Z,54.39
2023-03-16T01:31:50.055Z,54.67
2023-03-16T01:34:18.510Z,55.10
2023-03-16T01:36:48.112Z,54.60
2023-03-16T01:39:16.596Z,54.50
2023-03-16T01:41:47.018Z,54.39
2023-03-16T01:44:16.515Z,54.49
2023-03-16T01:46:44.292Z,55.55
2023-03-16T01:49:23.806Z,56.05
2023-03-16T01:52:02.540Z,55.68
2023-03-16T01:54:34.974Z,55.38
2023-03-16T01:57:07.359Z,54.90
2023-03-16T01:59:47.917Z,55.35
2023-03-16T02:02:19.018Z,55.35
2023-03-16T02:05:13.961Z,55.36
2023-03-16T02:07:46.756Z,55.17
2023-03-16T02:10:16.856Z,55.53
2023-03-16T02:12:44.059Z,55.19
2023-03-16T02:15:13.901Z,55.27
2023-03-16T02:17:43.810Z,55.54
2023-03-16T02:20:12.612Z,55.38
2023-03-16T02:22:43.888Z,54.94
2023-03-16T02:25:12.712Z,54.97
2023-03-16T02:27:39.201Z,54.80
2023-03-16T02:30:11.583Z,55.45
2023-03-16T02:32:49.012Z,55.70
2023-03-16T02:35:15.615Z,55.86
2023-03-16T02:37:42.462Z,55.87
2023-03-16T02:40:29.626Z,55.98
2023-03-16T02:43:15.047Z,55.24
2023-03-16T02:45:51.510Z,54.97
2023-03-16T02:48:52.743Z,55.20
2023-03-16T02:51:20.021Z,54.56
2023-03-16T02:53:46.643Z,55.28
2023-03-16T02:56:13.907Z,54.70
2023-03-16T02:58:40.808Z,54.66
2023-03-16T03:01:12.312Z,54.82
2023-03-16T03:03:40.042Z,54.86
2023-03-16T03:06:06.759Z,54.56
2023-03-16T03:08:35.963Z,55.38
2023-03-16T03:11:02.741Z,55.44
2023-03-16T03:13:29.389Z,55.12
2023-03-16T03:15:56.138Z,55.39
2023-03-16T03:18:25.403Z,55.83
2023-03-16T03:20:53.056Z,56.08
2023-03-16T03:23:20.120Z,55.81
2023-03-16T03:25:47.920Z,55.79
2023-03-16T03:28:15.361Z,55.89
2023-03-16T03:30:42.339Z,55.97
2023-03-16T03:33:09.306Z,55.77
2023-03-16T03:35:36.046Z,55.54
2023-03-16T03:38:02.647Z,55.78
2023-03-16T03:40:30.019Z,55.48
2023-03-16T03:43:01.456Z,56.37
2023-03-16T03:45:29.302Z,56.09
2023-03-16T03:47:56.453Z,55.71
2023-03-16T03:50:24.011Z,55.66
2023-03-16T03:52:57.504Z,55.81
2023-03-16T03:55:24.572Z,55.83
2023-03-16T03:57:51.097Z,56.10
2023-03-16T04:00:20.872Z,56.22
2023-03-16T04:02:48.067Z,56.28
2023-03-16T04:05:22.961Z,56.46
2023-03-16T04:07:55.042Z,56.17
2023-03-16T04:10:21.646Z,55.85
2023-03-16T04:12:48.178Z,56.31
2023-03-16T04:15:14.804Z,55.96
2023-03-16T04:17:59.272Z,56.51
2023-03-16T04:20:26.269Z,55.94
2023-03-16T04:22:58.294Z,55.93
2023-03-16T04:25:27.550Z,56.00
2023-03-16T04:27:54.589Z,55.84
2023-03-16T04:30:23.990Z,56.09
2023-03-16T04:32:54.457Z,56.20
2023-03-16T04:35:22.212Z,56.50
2023-03-16T04:37:52.960Z,56.46
2023-03-16T04:40:24.447Z,56.48
2023-03-16T04:42:59.545Z,56.58
2023-03-16T04:45:26.661Z,56.18
2023-03-16T04:47:56.561Z,56.45
2023-03-16T04:50:23.222Z,56.20
2023-03-16T04:52:53.168Z,56.53
2023-03-16T04:55:20.663Z,56.63
2023-03-16T04:57:47.408Z,56.61
2023-03-16T05:00:21.402Z,56.33
2023-03-16T05:02:56.259Z,56.22
2023-03-16T05:05:22.900Z,56.31
2023-03-16T05:07:49.539Z,56.28
2023-03-16T05:10:19.090Z,56.25
2023-03-16T05:12:47.332Z,56.51
2023-03-16T05:15:14.690Z,55.89
2023-03-16T05:17:43.003Z,56.04
2023-03-16T05:20:15.796Z,55.83
2023-03-16T05:22:48.092Z,56.03
2023-03-16T05:25:23.063Z,56.00
2023-03-16T05:27:54.324Z,56.82
2023-03-16T05:30:28.959Z,56.10
2023-03-16T05:32:58.428Z,56.37
2023-03-16T05:35:27.979Z,56.49
2023-03-16T05:37:59.179Z,56.27
2023-03-16T05:40:26.487Z,56.19
2023-03-16T05:43:04.342Z,56.33
2023-03-16T05:45:34.402Z,56.28
2023-03-16T05:48:09.446Z,55.69
2023-03-16T05:50:42.375Z,56.19
2023-03-16T05:53:09.257Z,55.48
2023-03-16T05:55:37.949Z,55.81
2023-03-16T05:58:06.963Z,55.82
2023-03-16T06:00:35.935Z,55.47
2023-03-16T06:03:13.099Z,55.33
2023-03-16T06:05:39.787Z,55.10
2023-03-16T06:08:06.921Z,54.88
2023-03-16T06:10:33.513Z,54.76
2023-03-16T06:13:00.777Z,54.51
2023-03-16T06:15:30.452Z,54.47
2023-03-16T06:17:59.396Z,54.47
2023-03-16T06:20:26.220Z,53.90
2023-03-16T06:22:53.128Z,53.97
2023-03-16T06:25:19.842Z,54.01
2023-03-16T06:27:49.010Z,53.58
2023-03-16T06:30:17.720Z,53.62
2023-03-16T06:32:45.790Z,53.04
2023-03-16T06:35:13.247Z,52.18
2023-03-16T06:37:45.086Z,52.40
2023-03-16T06:40:24.646Z,51.87
2023-03-16T06:42:51.482Z,51.55
2023-03-16T06:45:22.053Z,51.51
2023-03-16T06:47:49.594Z,51.37
2023-03-16T06:50:16.349Z,51.37
2023-03-16T06:52:43.695Z,51.33
2023-03-16T06:55:12.385Z,51.55
2023-03-16T06:57:42.047Z,50.83
2023-03-16T07:00:15.262Z,50.97
2023-03-16T07:02:43.473Z,51.26
2023-03-16T07:05:14.371Z,51.16
2023-03-16T07:07:42.712Z,50.58
2023-03-16T07:10:14.489Z,50.74
2023-03-16T07:12:42.275Z,50.70
2023-03-16T07:15:09.870Z,50.83
2023-03-16T07:17:36.860Z,50.67
2023-03-16T07:20:05.898Z,50.37
2023-03-16T07:22:33.284Z,50.35
2023-03-16T07:25:01.367Z,50.16
2023-03-16T07:27:29.565Z,50.78
2023-03-16T07:29:57.520Z,50.12
2023-03-16T07:32:24.287Z,50.38
2023-03-16T07:34:51.013Z,49.92
2023-03-16T07:37:21.771Z,49.81
2023-03-16T07:39:52.014Z,50.04
2023-03-16T07:42:20.090Z,49.99
2023-03-16T07:45:09.765Z,49.96
2023-03-16T07:47:36.610Z,49.73
2023-03-16T07:50:16.714Z,49.81
2023-03-16T07:52:44.254Z,49.81
2023-03-16T07:55:11.763Z,49.78
2023-03-16T07:57:39.769Z,48.96
2023-03-16T08:00:07.816Z,48.77
2023-03-16T08:02:40.208Z,50.02
2023-03-16T08:05:10.881Z,49.50
2023-03-16T08:07:39.483Z,48.70
2023-03-16T08:10:12.200Z,48.51
2023-03-16T08:13:04.571Z,48.23
2023-03-16T08:15:35.030Z,47.72
2023-03-16T08:18:10.116Z,48.46
2023-03-16T08:20:36.785Z,47.27
2023-03-16T08:23:03.605Z,49.08
2023-03-16T08:25:37.018Z,48.52
2023-03-16T08:28:09.393Z,48.29
2023-03-16T08:30:36.404Z,48.83
2023-03-16T08:33:23.025Z,47.37
2023-03-16T08:35:51.515Z,46.64
2023-03-16T08:38:19.224Z,46.62
2023-03-16T08:40:48.421Z,46.72
2023-03-16T08:43:17.939Z,46.40
2023-03-16T08:45:46.192Z,45.87
2023-03-16T08:48:14.776Z,46.60
2023-03-16T08:50:44.665Z,47.66
2023-03-16T08:53:13.694Z,45.68
2023-03-16T08:55:44.116Z,45.73
2023-03-16T08:58:12.318Z,45.74
2023-03-16T09:00:39.857Z,45.20
2023-03-16T09:03:06.888Z,45.23
2023-03-16T09:05:34.028Z,44.72
2023-03-16T09:08:01.533Z,44.45
2023-03-16T09:10:28.907Z,44.53
2023-03-16T09:12:55.654Z,44.78
2023-03-16T09:15:22.196Z,45.02
2023-03-16T09:17:48.985Z,43.96
2023-03-16T09:20:22.666Z,43.65
2023-03-16T09:22:54.513Z,43.55
2023-03-16T09:25:21.128Z,44.07
2023-03-16T09:27:47.669Z,43.67
2023-03-16T09:30:15.247Z,45.15
2023-03-16T09:32:41.977Z,43.90
2023-03-16T09:35:09.103Z,43.47
2023-03-16T09:37:45.104Z,44.04
2023-03-16T09:40:28.588Z,43.34
2023-03-16T09:43:20.702Z,43.45
2023-03-16T09:45:53.406Z,42.37
2023-03-16T09:48:21.544Z,42.09
2023-03-16T09:50:49.820Z,42.54
2023-03-16T09:53:29.295Z,41.96
2023-03-16T09:56:01.886Z,42.48
2023-03-16T09:58:28.470Z,42.86
2023-03-16T10:01:26.102Z,42.74
2023-03-16T10:04:07.751Z,43.02
2023-03-16T10:06:42.948Z,41.49
2023-03-16T10:09:38.118Z,41.66
2023-03-16T10:12:07.233Z,42.66
2023-03-16T10:15:00.632Z,42.56
2023-03-16T10:17:34.869Z,41.33
2023-03-16T10:20:08.885Z,41.02
2023-03-16T10:22:39.203Z,41.25
2023-03-16T10:25:24.024Z,41.45
2023-03-16T10:27:51.663Z,40.66
2023-03-16T10:30:33.871Z,41.16
2023-03-16T10:33:05.542Z,39.73
2023-03-16T10:35:46.259Z,39.46
2023-03-16T10:38:58.191Z,40.01
2023-03-16T10:41:32.922Z,39.56
2023-03-16T10:44:21.931Z,40.14
2023-03-16T10:47:03.261Z,39.70
2023-03-16T10:49:36.444Z,39.13
2023-03-16T10:52:14.315Z,38.81
2023-03-16T10:54:47.730Z,39.42
2023-03-16T10:57:21.490Z,37.44
2023-03-16T10:59:53.828Z,38.75
2023-03-16T11:02:24.927Z,37.21
2023-03-16T11:04:53.013Z,36.86
2023-03-16T11:07:24.071Z,35.84
2023-03-16T11:09:55.481Z,32.92
2023-03-16T11:12:27.459Z,29.16
2023-03-16T11:14:54.591Z,27.07
2023-03-16T11:17:37.332Z,23.71
2023-03-16T11:20:17.256Z,23.83
2023-03-16T11:22:48.365Z,24.56
2023-03-16T11:25:25.547Z,26.10
2023-03-16T11:28:09.008Z,29.32
2023-03-16T11:31:01.403Z,29.17
2023-03-16T11:33:31.102Z,26.83
2023-03-16T11:36:20.287Z,23.93
2023-03-16T11:39:17.001Z,19.03
2023-03-16T11:41:58.838Z,16.92
2023-03-16T11:44:57.355Z,15.68
2023-03-16T11:48:02.240Z,15.46
2023-03-16T11:50:52.593Z,16.25
2023-03-16T11:53:35.366Z,16.13
2023-03-16T11:56:18.646Z,15.81
2023-03-16T11:58:51.161Z,17.15
2023-03-16T12:01:34.010Z,18.51
2023-03-16T12:04:29.723Z,19.65
2023-03-16T12:07:25.846Z,21.42
2023-03-16T12:10:23.637Z,21.14
2023-03-16T12:13:30.757Z,20.35
2023-03-16T12:16:04.726Z,20.14
2023-03-16T12:18:53.145Z,20.44
2023-03-16T12:21:25.587Z,20.93
2023-03-16T12:24:00.282Z,20.85
2023-03-16T12:26:31.485Z,22.27
2023-03-16T12:29:00.612Z,22.05
2023-03-16T12:31:53.415Z,24.77
2023-03-16T12:35:18.579Z,22.26
2023-03-16T12:37:49.242Z,21.38
2023-03-16T12:40:33.739Z,22.48
2023-03-16T12:43:12.592Z,21.08
2023-03-16T12:45:46.211Z,21.38
2023-03-16T12:48:25.064Z,20.51
2023-03-16T12:50:55.653Z,20.12
2023-03-16T12:53:51.708Z,19.49
2023-03-16T12:56:21.391Z,19.28
2023-03-16T12:58:50.425Z,18.59
2023-03-16T13:01:20.782Z,19.58
2023-03-16T13:03:50.678Z,18.97
2023-03-16T13:06:20.499Z,19.69
2023-03-16T13:08:52.773Z,18.57
2023-03-16T13:11:19.440Z,17.16
2023-03-16T13:14:12.606Z,16.38
2023-03-16T13:16:39.797Z,16.41
2023-03-16T13:19:29.775Z,16.19
2023-03-16T13:22:28.495Z,17.05
2023-03-16T13:25:00.639Z,15.97
2023-03-16T13:27:30.617Z,15.41
2023-03-16T13:29:59.903Z,17.95
2023-03-16T13:32:31.578Z,16.70
2023-03-16T13:35:00.608Z,15.31
2023-03-16T13:37:29.739Z,15.66
2023-03-16T13:39:59.722Z,16.04
2023-03-16T13:42:32.421Z,14.13
2023-03-16T13:45:08.193Z,13.04
2023-03-16T13:47:35.017Z,13.60
2023-03-16T13:50:01.551Z,12.46
2023-03-16T13:52:34.247Z,13.15
2023-03-16T13:55:03.554Z,13.08
2023-03-16T13:57:35.668Z,13.13
2023-03-16T14:00:27.564Z,13.07
2023-03-16T14:02:57.181Z,13.74
2023-03-16T14:05:30.310Z,14.78
2023-03-16T14:07:59.353Z,15.06
2023-03-16T14:10:32.116Z,14.43
2023-03-16T14:13:10.496Z,14.76
2023-03-16T14:15:38.564Z,15.32
2023-03-16T14:18:13.848Z,15.47
2023-03-16T14:20:41.708Z,14.62
2023-03-16T14:23:21.746Z,15.72
2023-03-16T14:25:49.601Z,15.42
2023-03-16T14:28:29.492Z,16.13
2023-03-16T14:31:03.868Z,15.46
2023-03-16T14:33:37.594Z,13.42
2023-03-16T14:36:13.322Z,12.25
2023-03-16T14:38:42.943Z,13.00
2023-03-16T14:41:17.412Z,12.54
2023-03-16T14:43:51.542Z,12.93
2023-03-16T14:46:29.357Z,12.58
2023-03-16T14:49:24.587Z,12.10
2023-03-16T14:51:53.797Z,12.06
2023-03-16T14:54:23.807Z,12.82
2023-03-16T14:56:53.162Z,13.49
2023-03-16T14:59:20.362Z,12.88
2023-03-16T15:01:49.518Z,12.87
2023-03-16T15:04:19.824Z,13.35
2023-03-16T15:06:47.320Z,13.12
2023-03-16T15:09:39.126Z,11.36
2023-03-16T15:12:34.694Z,11.99
2023-03-16T15:15:17.316Z,13.65
2023-03-16T15:17:48.771Z,14.95
2023-03-16T15:20:21.420Z,16.08
2023-03-16T15:22:51.004Z,16.36
2023-03-16T15:25:20.487Z,16.51
2023-03-16T15:27:48.237Z,18.09
2023-03-16T15:30:24.345Z,19.92
2023-03-16T15:32:51.296Z,21.17
2023-03-16T15:35:18.424Z,22.40
2023-03-16T15:37:45.101Z,23.55
2023-03-16T15:40:16.047Z,23.95
2023-03-16T15:42:43.684Z,24.33
2023-03-16T15:45:14.386Z,24.62
2023-03-16T15:47:42.264Z,25.86
2023-03-16T15:50:15.537Z,25.82
2023-03-16T15:52:46.044Z,26.24
2023-03-16T15:55:37.516Z,26.56
2023-03-16T15:58:05.379Z,27.03
2023-03-16T16:00:37.928Z,27.02
2023-03-16T16:03:06.630Z,28.05
2023-03-16T16:05:33.927Z,28.60
2023-03-16T16:08:00.542Z,29.32
2023-03-16T16:10:28.581Z,28.88
2023-03-16T16:12:56.635Z,28.92
2023-03-16T16:15:30.591Z,28.63
2023-03-16T16:18:19.671Z,28.49
2023-03-16T16:20:44.562Z,28.52
2023-03-16T16:23:11.191Z,28.56
2023-03-16T16:25:41.398Z,28.81
2023-03-16T16:28:18.533Z,28.99
2023-03-16T16:30:46.176Z,28.78
2023-03-16T16:33:27.313Z,29.37
2023-03-16T16:35:55.729Z,28.97
2023-03-16T16:38:23.133Z,29.65
2023-03-16T16:40:51.523Z,29.41
2023-03-16T16:43:32.458Z,29.24
2023-03-16T16:46:01.380Z,29.60
2023-03-16T16:48:36.662Z,30.14
2023-03-16T16:51:04.730Z,30.17
2023-03-16T16:53:31.325Z,30.09
2023-03-16T16:55:57.889Z,30.49
2023-03-16T16:58:25.181Z,30.78
2023-03-16T17:00:56.121Z,31.00
2023-03-16T17:03:28.438Z,31.44
2023-03-16T17:05:57.881Z,31.64
2023-03-16T17:08:25.368Z,31.89
2023-03-16T17:10:53.321Z,32.18
2023-03-16T17:13:40.057Z,32.51
2023-03-16T17:16:09.616Z,32.37
2023-03-16T17:18:36.202Z,32.76
2023-03-16T17:21:04.915Z,32.80
2023-03-16T17:23:37.016Z,33.10
2023-03-16T17:26:17.834Z,33.23
2023-03-16T17:28:52.883Z,33.46
2023-03-16T17:31:25.513Z,34.06
2023-03-16T17:33:53.734Z,34.15
2023-03-16T17:36:21.531Z,34.30
2023-03-16T17:38:48.276Z,34.44
2023-03-16T17:41:27.479Z,34.28
2023-03-16T17:43:57.017Z,34.91
2023-03-16T17:46:26.448Z,35.35
2023-03-16T17:48:54.483Z,35.06
2023-03-16T17:51:22.953Z,35.50
2023-03-16T17:53:49.596Z,34.94
2023-03-16T17:56:19.114Z,35.95
2023-03-16T17:58:47.832Z,36.14
2023-03-16T18:01:15.658Z,35.94
2023-03-16T18:03:44.298Z,35.88
2023-03-16T18:06:17.477Z,35.87
2023-03-16T18:08:45.774Z,35.72
2023-03-16T18:11:18.522Z,36.03
2023-03-16T18:13:45.665Z,36.41
2023-03-16T18:16:19.678Z,36.13
2023-03-16T18:18:46.638Z,36.48
2023-03-16T18:21:23.068Z,36.17
2023-03-16T18:23:50.124Z,36.68
2023-03-16T18:26:18.037Z,36.71
2023-03-16T18:28:45.641Z,36.83
2023-03-16T18:31:30.892Z,36.93
2023-03-16T18:34:03.449Z,36.92
2023-03-16T18:36:32.728Z,37.29
2023-03-16T18:39:03.639Z,37.28
2023-03-16T18:41:36.055Z,37.50
2023-03-16T18:44:24.030Z,37.38
2023-03-16T18:46:52.817Z,37.91
2023-03-16T18:49:29.477Z,38.14
2023-03-16T18:51:56.188Z,37.71
2023-03-16T18:54:24.333Z,38.06
2023-03-16T18:56:51.633Z,38.01
2023-03-16T18:59:18.295Z,38.32
2023-03-16T19:01:45.560Z,38.38
2023-03-16T19:04:32.637Z,38.01
2023-03-16T19:06:59.544Z,37.84
2023-03-16T19:09:31.691Z,37.93
2023-03-16T19:11:58.723Z,38.29
2023-03-16T19:14:32.901Z,38.60
2023-03-16T19:16:59.453Z,38.06
2023-03-16T19:19:27.286Z,38.31
2023-03-16T19:22:18.581Z,38.46
2023-03-16T19:24:52.382Z,38.30
2023-03-16T19:27:23.870Z,38.47
2023-03-16T19:29:52.230Z,38.67
2023-03-16T19:32:20.831Z,38.56
2023-03-16T19:34:47.785Z,38.99
2023-03-16T19:37:15.411Z,38.83
2023-03-16T19:39:43.551Z,39.35
2023-03-16T19:42:21.323Z,39.74
2023-03-16T19:44:49.882Z,39.48
2023-03-16T19:47:33.248Z,39.68
2023-03-16T19:50:00.705Z,39.41
2023-03-16T19:52:30.710Z,39.53
2023-03-16T19:54:57.264Z,39.78
2023-03-16T19:57:24.032Z,39.81
2023-03-16T19:59:55.421Z,40.19
2023-03-16T20:02:35.508Z,39.93
2023-03-16T20:05:02.175Z,39.96
2023-03-16T20:07:29.011Z,40.19
2023-03-16T20:09:57.124Z,40.27
2023-03-16T20:12:27.999Z,40.41
2023-03-16T20:14:56.414Z,40.31
2023-03-16T20:17:28.417Z,40.43
2023-03-16T20:19:57.085Z,40.52
2023-03-16T20:22:27.158Z,41.21
2023-03-16T20:24:54.717Z,40.89
2023-03-16T20:27:22.888Z,40.95
2023-03-16T20:29:50.085Z,40.85
2023-03-16T20:32:27.943Z,41.35
2023-03-16T20:34:54.626Z,41.20
2023-03-16T20:37:32.174Z,41.33
2023-03-16T20:39:59.662Z,41.26
2023-03-16T20:42:30.828Z,41.38
2023-03-16T20:44:57.939Z,41.72
2023-03-16T20:47:25.896Z,41.59
2023-03-16T20:49:55.014Z,41.95
2023-03-16T20:52:25.319Z,42.05
2023-03-16T20:54:52.544Z,42.25
2023-03-16T20:57:22.706Z,42.20
2023-03-16T20:59:51.492Z,42.37
2023-03-16T21:02:31.867Z,42.80
2023-03-16T21:05:00.229Z,42.25
2023-03-16T21:07:27.182Z,42.34
2023-03-16T21:09:53.842Z,42.55
2023-03-16T21:12:32.848Z,43.10
2023-03-16T21:15:02.485Z,42.78
2023-03-16T21:17:31.248Z,42.91
2023-03-16T21:19:58.609Z,42.70
2023-03-16T21:22:31.151Z,42.80
2023-03-16T21:24:58.592Z,43.15
2023-03-16T21:27:31.127Z,43.05
2023-03-16T21:30:01.849Z,42.89
2023-03-16T21:32:28.796Z,43.06
2023-03-16T21:34:56.644Z,43.27
2023-03-16T21:37:27.801Z,43.57
2023-03-16T21:39:54.615Z,43.77
2023-03-16T21:42:22.076Z,44.00
2023-03-16T21:44:48.613Z,43.82
2023-03-16T21:47:21.085Z,43.78
2023-03-16T21:49:47.737Z,43.83
2023-03-16T21:52:23.716Z,44.13
2023-03-16T21:54:51.762Z,44.35
2023-03-16T21:57:19.690Z,44.25
2023-03-16T21:59:46.513Z,43.86
2023-03-16T22:02:22.803Z,43.92
2023-03-16T22:04:50.656Z,43.95
2023-03-16T22:07:17.918Z,44.15
2023-03-16T22:09:44.446Z,44.06
2023-03-16T22:12:12.659Z,43.93
2023-03-16T22:14:39.854Z,44.02
2023-03-16T22:17:08.469Z,44.14
2023-03-16T22:19:35.193Z,44.12
2023-03-16T22:22:01.910Z,44.38
2023-03-16T22:24:31.000Z,44.82
2023-03-16T22:26:58.122Z,44.65
2023-03-16T22:29:30.070Z,44.67
2023-03-16T22:32:04.238Z,44.33
2023-03-16T22:34:43.624Z,44.51
2023-03-16T22:37:15.585Z,44.74
2023-03-16T22:39:42.209Z,44.78
2023-03-16T22:42:38.341Z,45.31
2023-03-16T22:45:18.693Z,45.06
2023-03-16T22:47:47.594Z,44.94
2023-03-16T22:50:16.516Z,45.21
2023-03-16T22:52:46.187Z,45.65
2023-03-16T22:55:22.493Z,45.67
2023-03-16T22:58:01.478Z,45.52
2023-03-16T23:00:28.731Z,45.80
2023-03-16T23:02:57.490Z,46.03
2023-03-16T23:05:27.345Z,45.94
2023-03-16T23:07:54.209Z,46.11
2023-03-16T23:10:25.509Z,46.19
2023-03-16T23:12:54.046Z,45.87
2023-03-16T23:15:24.580Z,45.89
2023-03-16T23:17:51.789Z,46.28
2023-03-16T23:20:21.543Z,46.29
2023-03-16T23:22:48.125Z,46.39
2023-03-16T23:25:15.479Z,46.49
2023-03-16T23:27:42.733Z,46.25
2023-03-16T23:30:21.899Z,46.32
2023-03-16T23:32:50.228Z,46.28
2023-03-16T23:35:26.348Z,46.61
2023-03-16T23:37:53.469Z,46.59
2023-03-16T23:40:21.655Z,46.75
2023-03-16T23:42:48.718Z,46.89
2023-03-16T23:45:28.084Z,46.97
2023-03-16T23:47:58.494Z,46.93
2023-03-16T23:50:31.382Z,46.83
2023-03-16T23:52:58.210Z,47.06
2023-03-16T23:55:24.793Z,47.09
2023-03-16T23:57:51.416Z,47.28
